sensor_id;sensor_type;location;lat;lon;timestamp;temperature;humidity
33863;DHT22;20158;51.436;-2.742;2023-03-23T00:01:03;12.70;63.20
33863;DHT22;20158;51.436;-2.742;2023-03-23T00:03:30;12.70;63.20
33863;DHT22;20158;51.436;-2.742;2023-03-23T00:05:58;12.70;63.20
33863;DHT22;20158;51.436;-2.742;2023-03-23T00:08:39;12.60;63.10
33863;DHT22;20158;51.436;-2.742;2023-03-23T00:11:16;12.60;63.10
33863;DHT22;20158;51.436;-2.742;2023-03-23T00:13:43;12.60;63.10
33863;DHT22;20158;51.436;-2.742;2023-03-23T00:16:12;12.60;63.10
33863;DHT22;20158;51.436;-2.742;2023-03-23T00:18:47;12.60;63.10
33863;DHT22;20158;51.436;-2.742;2023-03-23T00:21:15;12.50;62.90
33863;DHT22;20158;51.436;-2.742;2023-03-23T00:23:41;12.50;63.00
33863;DHT22;20158;51.436;-2.742;2023-03-23T00:26:11;12.50;63.00
33863;DHT22;20158;51.436;-2.742;2023-03-23T00:28:39;12.50;63.10
33863;DHT22;20158;51.436;-2.742;2023-03-23T00:31:11;12.40;62.90
33863;DHT22;20158;51.436;-2.742;2023-03-23T00:33:39;12.40;63.00
33863;DHT22;20158;51.436;-2.742;2023-03-23T00:36:08;12.40;63.00
33863;DHT22;20158;51.436;-2.742;2023-03-23T00:38:36;12.40;63.00
33863;DHT22;20158;51.436;-2.742;2023-03-23T00:41:02;12.40;63.10
33863;DHT22;20158;51.436;-2.742;2023-03-23T00:43:29;12.40;63.10
33863;DHT22;20158;51.436;-2.742;2023-03-23T00:45:56;12.40;63.10
33863;DHT22;20158;51.436;-2.742;2023-03-23T00:48:23;12.30;63.00
33863;DHT22;20158;51.436;-2.742;2023-03-23T00:50:51;12.40;63.20
33863;DHT22;20158;51.436;-2.742;2023-03-23T00:53:18;12.30;63.00
33863;DHT22;20158;51.436;-2.742;2023-03-23T00:55:47;12.30;63.00
33863;DHT22;20158;51.436;-2.742;2023-03-23T00:58:16;12.30;63.10
33863;DHT22;20158;51.436;-2.742;2023-03-23T01:00:43;12.20;62.90
33863;DHT22;20158;51.436;-2.742;2023-03-23T01:03:10;12.30;63.10
33863;DHT22;20158;51.436;-2.742;2023-03-23T01:05:46;12.20;63.00
33863;DHT22;20158;51.436;-2.742;2023-03-23T01:08:18;12.20;63.00
33863;DHT22;20158;51.436;-2.742;2023-03-23T01:10:46;12.20;63.00
33863;DHT22;20158;51.436;-2.742;2023-03-23T01:13:12;12.20;63.00
33863;DHT22;20158;51.436;-2.742;2023-03-23T01:15:39;12.10;62.90
33863;DHT22;20158;51.436;-2.742;2023-03-23T01:18:05;12.10;62.90
33863;DHT22;20158;51.436;-2.742;2023-03-23T01:20:32;12.10;62.90
33863;DHT22;20158;51.436;-2.742;2023-03-23T01:22:58;12.10;63.00
33863;DHT22;20158;51.436;-2.742;2023-03-23T01:25:35;12.00;62.80
33863;DHT22;20158;51.436;-2.742;2023-03-23T01:28:02;12.00;62.90
33863;DHT22;20158;51.436;-2.742;2023-03-23T01:30:28;12.00;62.90
33863;DHT22;20158;51.436;-2.742;2023-03-23T01:32:56;11.90;62.70
33863;DHT22;20158;51.436;-2.742;2023-03-23T01:35:22;11.90;62.80
33863;DHT22;20158;51.436;-2.742;2023-03-23T01:37:48;11.80;62.60
33863;DHT22;20158;51.436;-2.742;2023-03-23T01:40:15;11.80;62.70
33863;DHT22;20158;51.436;-2.742;2023-03-23T01:42:42;11.80;62.70
33863;DHT22;20158;51.436;-2.742;2023-03-23T01:45:45;11.70;62.60
33863;DHT22;20158;51.436;-2.742;2023-03-23T01:48:19;11.70;62.70
33863;DHT22;20158;51.436;-2.742;2023-03-23T01:50:59;11.70;62.70
33863;DHT22;20158;51.436;-2.742;2023-03-23T01:53:35;11.60;62.60
33863;DHT22;20158;51.436;-2.742;2023-03-23T01:56:02;11.60;62.60
33863;DHT22;20158;51.436;-2.742;2023-03-23T01:58:32;11.60;62.70
33863;DHT22;20158;51.436;-2.742;2023-03-23T02:01:04;11.50;62.40
33863;DHT22;20158;51.436;-2.742;2023-03-23T02:03:32;11.50;62.50
33863;DHT22;20158;51.436;-2.742;2023-03-23T02:06:00;11.50;62.60
33863;DHT22;20158;51.436;-2.742;2023-03-23T02:08:37;11.40;62.40
33863;DHT22;20158;51.436;-2.742;2023-03-23T02:11:14;11.40;62.50
33863;DHT22;20158;51.436;-2.742;2023-03-23T02:13:42;11.40;62.60
33863;DHT22;20158;51.436;-2.742;2023-03-23T02:30:09;11.20;62.40
33863;DHT22;20158;51.436;-2.742;2023-03-23T02:35:36;11.20;62.50
33863;DHT22;20158;51.436;-2.742;2023-03-23T02:38:22;11.20;62.50
33863;DHT22;20158;51.436;-2.742;2023-03-23T02:40:54;11.10;62.30
33863;DHT22;20158;51.436;-2.742;2023-03-23T02:43:23;11.10;62.30
33863;DHT22;20158;51.436;-2.742;2023-03-23T02:45:52;11.10;62.40
33863;DHT22;20158;51.436;-2.742;2023-03-23T02:48:23;11.10;62.40
33863;DHT22;20158;51.436;-2.742;2023-03-23T02:50:52;11.00;62.30
33863;DHT22;20158;51.436;-2.742;2023-03-23T02:53:21;11.00;62.30
33863;DHT22;20158;51.436;-2.742;2023-03-23T02:55:51;11.00;62.40
33863;DHT22;20158;51.436;-2.742;2023-03-23T02:58:22;10.90;62.20
33863;DHT22;20158;51.436;-2.742;2023-03-23T03:00:51;10.90;62.20
33863;DHT22;20158;51.436;-2.742;2023-03-23T03:03:23;10.90;62.30
33863;DHT22;20158;51.436;-2.742;2023-03-23T03:06:17;10.90;62.40
33863;DHT22;20158;51.436;-2.742;2023-03-23T03:11:31;10.80;62.30
33863;DHT22;20158;51.436;-2.742;2023-03-23T03:14:04;10.80;62.30
33863;DHT22;20158;51.436;-2.742;2023-03-23T03:16:40;10.70;62.20
33863;DHT22;20158;51.436;-2.742;2023-03-23T03:21:36;10.70;62.20
33863;DHT22;20158;51.436;-2.742;2023-03-23T03:24:05;10.70;62.30
33863;DHT22;20158;51.436;-2.742;2023-03-23T03:26:40;10.70;62.30
33863;DHT22;20158;51.436;-2.742;2023-03-23T03:29:34;10.70;62.30
33863;DHT22;20158;51.436;-2.742;2023-03-23T03:32:04;10.60;62.20
33863;DHT22;20158;51.436;-2.742;2023-03-23T03:34:33;10.60;62.20
33863;DHT22;20158;51.436;-2.742;2023-03-23T03:37:00;10.60;62.10
33863;DHT22;20158;51.436;-2.742;2023-03-23T03:39:27;10.60;62.20
33863;DHT22;20158;51.436;-2.742;2023-03-23T03:41:55;10.50;62.00
33863;DHT22;20158;51.436;-2.742;2023-03-23T03:44:23;10.50;62.10
33863;DHT22;20158;51.436;-2.742;2023-03-23T03:46:49;10.50;62.10
33863;DHT22;20158;51.436;-2.742;2023-03-23T03:49:16;10.50;62.20
33863;DHT22;20158;51.436;-2.742;2023-03-23T03:51:44;10.50;62.20
33863;DHT22;20158;51.436;-2.742;2023-03-23T03:54:19;10.50;62.30
33863;DHT22;20158;51.436;-2.742;2023-03-23T03:56:46;10.40;62.10
33863;DHT22;20158;51.436;-2.742;2023-03-23T03:59:51;10.40;62.20
33863;DHT22;20158;51.436;-2.742;2023-03-23T04:02:37;10.40;62.50
33863;DHT22;20158;51.436;-2.742;2023-03-23T04:05:03;10.40;62.20
33863;DHT22;20158;51.436;-2.742;2023-03-23T04:07:32;10.30;62.10
33863;DHT22;20158;51.436;-2.742;2023-03-23T04:09:58;10.30;62.10
33863;DHT22;20158;51.436;-2.742;2023-03-23T04:12:24;10.30;62.20
33863;DHT22;20158;51.436;-2.742;2023-03-23T04:14:59;10.30;62.20
33863;DHT22;20158;51.436;-2.742;2023-03-23T04:17:30;10.30;62.30
33863;DHT22;20158;51.436;-2.742;2023-03-23T04:19:57;10.30;62.30
33863;DHT22;20158;51.436;-2.742;2023-03-23T04:22:26;10.20;62.20
33863;DHT22;20158;51.436;-2.742;2023-03-23T04:25:02;10.20;62.20
33863;DHT22;20158;51.436;-2.742;2023-03-23T04:27:33;10.20;62.20
33863;DHT22;20158;51.436;-2.742;2023-03-23T04:30:02;10.20;62.20
33863;DHT22;20158;51.436;-2.742;2023-03-23T04:32:33;10.20;62.20
33863;DHT22;20158;51.436;-2.742;2023-03-23T04:35:00;10.20;62.20
33863;DHT22;20158;51.436;-2.742;2023-03-23T04:37:34;10.10;62.00
33863;DHT22;20158;51.436;-2.742;2023-03-23T04:40:04;10.10;62.00
33863;DHT22;20158;51.436;-2.742;2023-03-23T04:42:39;10.10;62.10
33863;DHT22;20158;51.436;-2.742;2023-03-23T04:45:27;10.10;62.10
33863;DHT22;20158;51.436;-2.742;2023-03-23T04:48:05;10.00;62.00
33863;DHT22;20158;51.436;-2.742;2023-03-23T04:50:41;10.00;62.00
33863;DHT22;20158;51.436;-2.742;2023-03-23T04:53:18;10.00;62.10
33863;DHT22;20158;51.436;-2.742;2023-03-23T04:55:46;9.90;61.90
33863;DHT22;20158;51.436;-2.742;2023-03-23T04:58:15;9.90;62.00
33863;DHT22;20158;51.436;-2.742;2023-03-23T05:00:55;9.90;62.00
33863;DHT22;20158;51.436;-2.742;2023-03-23T05:03:22;9.80;61.90
33863;DHT22;20158;51.436;-2.742;2023-03-23T05:05:51;9.80;61.90
33863;DHT22;20158;51.436;-2.742;2023-03-23T05:08:20;9.80;62.00
33863;DHT22;20158;51.436;-2.742;2023-03-23T05:10:51;9.80;62.10
33863;DHT22;20158;51.436;-2.742;2023-03-23T05:13:18;9.80;62.10
33863;DHT22;20158;51.436;-2.742;2023-03-23T05:15:49;9.80;62.10
33863;DHT22;20158;51.436;-2.742;2023-03-23T05:18:16;9.80;62.20
33863;DHT22;20158;51.436;-2.742;2023-03-23T05:20:42;9.80;62.20
33863;DHT22;20158;51.436;-2.742;2023-03-23T05:23:15;9.70;62.00
33863;DHT22;20158;51.436;-2.742;2023-03-23T05:25:43;9.80;62.10
33863;DHT22;20158;51.436;-2.742;2023-03-23T05:28:14;9.80;62.10
33863;DHT22;20158;51.436;-2.742;2023-03-23T05:31:02;9.80;62.10
33863;DHT22;20158;51.436;-2.742;2023-03-23T05:33:31;9.80;62.10
33863;DHT22;20158;51.436;-2.742;2023-03-23T05:36:03;9.80;62.10
33863;DHT22;20158;51.436;-2.742;2023-03-23T05:38:37;9.80;62.20
33863;DHT22;20158;51.436;-2.742;2023-03-23T05:41:05;9.80;62.20
33863;DHT22;20158;51.436;-2.742;2023-03-23T05:43:40;9.80;62.20
33863;DHT22;20158;51.436;-2.742;2023-03-23T05:46:29;9.80;62.20
33863;DHT22;20158;51.436;-2.742;2023-03-23T05:48:59;9.80;62.20
33863;DHT22;20158;51.436;-2.742;2023-03-23T05:51:32;9.80;62.30
33863;DHT22;20158;51.436;-2.742;2023-03-23T05:53:58;9.80;62.30
33863;DHT22;20158;51.436;-2.742;2023-03-23T05:56:25;9.90;62.50
33863;DHT22;20158;51.436;-2.742;2023-03-23T05:59:11;9.80;62.30
33863;DHT22;20158;51.436;-2.742;2023-03-23T06:01:39;9.80;62.30
33863;DHT22;20158;51.436;-2.742;2023-03-23T06:04:06;9.90;62.50
33863;DHT22;20158;51.436;-2.742;2023-03-23T06:06:42;9.90;62.50
33863;DHT22;20158;51.436;-2.742;2023-03-23T06:09:10;9.90;62.50
33863;DHT22;20158;51.436;-2.742;2023-03-23T06:11:56;9.90;62.50
33863;DHT22;20158;51.436;-2.742;2023-03-23T06:14:51;9.90;62.50
33863;DHT22;20158;51.436;-2.742;2023-03-23T06:17:25;10.00;62.60
33863;DHT22;20158;51.436;-2.742;2023-03-23T06:19:53;10.00;62.60
33863;DHT22;20158;51.436;-2.742;2023-03-23T06:22:20;10.00;62.70
33863;DHT22;20158;51.436;-2.742;2023-03-23T06:25:09;10.10;62.90
33863;DHT22;20158;51.436;-2.742;2023-03-23T06:27:42;10.10;62.80
33863;DHT22;20158;51.436;-2.742;2023-03-23T06:30:13;10.10;62.80
33863;DHT22;20158;51.436;-2.742;2023-03-23T06:32:41;10.20;63.00
33863;DHT22;20158;51.436;-2.742;2023-03-23T06:35:10;10.30;63.10
33863;DHT22;20158;51.436;-2.742;2023-03-23T06:38:05;10.30;63.10
33863;DHT22;20158;51.436;-2.742;2023-03-23T06:40:42;10.40;63.10
33863;DHT22;20158;51.436;-2.742;2023-03-23T06:43:13;10.40;63.00
33863;DHT22;20158;51.436;-2.742;2023-03-23T06:45:48;10.60;63.30
33863;DHT22;20158;51.436;-2.742;2023-03-23T06:48:43;10.60;63.20
33863;DHT22;20158;51.436;-2.742;2023-03-23T06:51:14;10.70;63.20
33863;DHT22;20158;51.436;-2.742;2023-03-23T06:53:46;10.70;63.10
33863;DHT22;20158;51.436;-2.742;2023-03-23T06:56:13;10.80;63.30
33863;DHT22;20158;51.436;-2.742;2023-03-23T06:58:41;10.90;63.40
33863;DHT22;20158;51.436;-2.742;2023-03-23T07:01:08;11.00;63.60
33863;DHT22;20158;51.436;-2.742;2023-03-23T07:03:39;11.10;63.90
33863;DHT22;20158;51.436;-2.742;2023-03-23T07:06:08;11.20;64.40
33863;DHT22;20158;51.436;-2.742;2023-03-23T07:08:41;11.30;64.90
33863;DHT22;20158;51.436;-2.742;2023-03-23T07:11:13;11.50;65.40
33863;DHT22;20158;51.436;-2.742;2023-03-23T07:13:40;11.80;66.20
33863;DHT22;20158;51.436;-2.742;2023-03-23T07:16:09;12.00;66.80
33863;DHT22;20158;51.436;-2.742;2023-03-23T07:18:37;12.30;67.40
33863;DHT22;20158;51.436;-2.742;2023-03-23T07:21:05;12.60;67.80
33863;DHT22;20158;51.436;-2.742;2023-03-23T07:23:32;12.80;68.00
33863;DHT22;20158;51.436;-2.742;2023-03-23T07:26:04;13.00;68.10
33863;DHT22;20158;51.436;-2.742;2023-03-23T07:28:47;13.30;68.40
33863;DHT22;20158;51.436;-2.742;2023-03-23T07:31:23;13.60;68.60
33863;DHT22;20158;51.436;-2.742;2023-03-23T07:33:50;13.90;68.80
33863;DHT22;20158;51.436;-2.742;2023-03-23T07:36:35;14.10;68.70
33863;DHT22;20158;51.436;-2.742;2023-03-23T07:39:05;14.20;68.40
33863;DHT22;20158;51.436;-2.742;2023-03-23T07:41:34;14.30;68.20
33863;DHT22;20158;51.436;-2.742;2023-03-23T07:44:11;14.40;68.20
33863;DHT22;20158;51.436;-2.742;2023-03-23T07:46:40;14.50;68.10
33863;DHT22;20158;51.436;-2.742;2023-03-23T07:49:14;14.50;68.00
33863;DHT22;20158;51.436;-2.742;2023-03-23T07:51:46;14.60;68.00
33863;DHT22;20158;51.436;-2.742;2023-03-23T07:54:14;14.60;67.70
33863;DHT22;20158;51.436;-2.742;2023-03-23T07:56:57;14.60;67.50
33863;DHT22;20158;51.436;-2.742;2023-03-23T07:59:30;14.50;67.20
33863;DHT22;20158;51.436;-2.742;2023-03-23T08:01:58;14.50;67.10
33863;DHT22;20158;51.436;-2.742;2023-03-23T08:04:27;14.60;67.20
33863;DHT22;20158;51.436;-2.742;2023-03-23T08:07:12;14.60;66.90
33863;DHT22;20158;51.436;-2.742;2023-03-23T08:09:56;14.70;66.80
33863;DHT22;20158;51.436;-2.742;2023-03-23T08:12:29;14.70;66.60
33863;DHT22;20158;51.436;-2.742;2023-03-23T08:15:14;14.70;66.40
33863;DHT22;20158;51.436;-2.742;2023-03-23T08:17:59;14.80;66.50
33863;DHT22;20158;51.436;-2.742;2023-03-23T08:20:45;14.90;66.40
33863;DHT22;20158;51.436;-2.742;2023-03-23T08:23:35;15.10;66.40
33863;DHT22;20158;51.436;-2.742;2023-03-23T08:26:22;15.20;66.30
33863;DHT22;20158;51.436;-2.742;2023-03-23T08:29:05;15.30;66.20
33863;DHT22;20158;51.436;-2.742;2023-03-23T08:31:54;15.50;66.20
33863;DHT22;20158;51.436;-2.742;2023-03-23T08:34:31;15.70;66.10
33863;DHT22;20158;51.436;-2.742;2023-03-23T08:37:15;15.80;66.00
33863;DHT22;20158;51.436;-2.742;2023-03-23T08:40:12;15.90;65.90
33863;DHT22;20158;51.436;-2.742;2023-03-23T08:42:58;16.00;65.90
33863;DHT22;20158;51.436;-2.742;2023-03-23T08:45:50;16.10;65.90
33863;DHT22;20158;51.436;-2.742;2023-03-23T08:48:35;16.20;65.70
33863;DHT22;20158;51.436;-2.742;2023-03-23T08:51:22;16.40;65.70
33863;DHT22;20158;51.436;-2.742;2023-03-23T08:54:08;16.60;65.60
33863;DHT22;20158;51.436;-2.742;2023-03-23T08:56:53;16.80;65.50
33863;DHT22;20158;51.436;-2.742;2023-03-23T08:59:43;16.90;65.20
33863;DHT22;20158;51.436;-2.742;2023-03-23T09:02:29;17.00;65.10
33863;DHT22;20158;51.436;-2.742;2023-03-23T09:05:15;17.10;65.10
33863;DHT22;20158;51.436;-2.742;2023-03-23T09:07:57;17.20;65.10
33863;DHT22;20158;51.436;-2.742;2023-03-23T09:10:29;17.40;65.10
33863;DHT22;20158;51.436;-2.742;2023-03-23T09:12:56;17.50;64.90
33863;DHT22;20158;51.436;-2.742;2023-03-23T09:15:23;17.70;64.80
33863;DHT22;20158;51.436;-2.742;2023-03-23T09:17:51;17.90;64.80
33863;DHT22;20158;51.436;-2.742;2023-03-23T09:20:21;18.00;64.60
33863;DHT22;20158;51.436;-2.742;2023-03-23T09:22:50;18.00;64.20
33863;DHT22;20158;51.436;-2.742;2023-03-23T09:25:18;18.00;64.00
33863;DHT22;20158;51.436;-2.742;2023-03-23T09:27:49;18.10;64.10
33863;DHT22;20158;51.436;-2.742;2023-03-23T09:30:19;18.00;63.90
33863;DHT22;20158;51.436;-2.742;2023-03-23T09:32:46;17.90;63.70
33863;DHT22;20158;51.436;-2.742;2023-03-23T09:35:17;17.90;63.80
33863;DHT22;20158;51.436;-2.742;2023-03-23T09:37:44;17.90;63.70
33863;DHT22;20158;51.436;-2.742;2023-03-23T09:40:14;17.80;63.50
33863;DHT22;20158;51.436;-2.742;2023-03-23T09:51:00;18.10;63.30
33863;DHT22;20158;51.436;-2.742;2023-03-23T09:53:34;18.10;63.00
33863;DHT22;20158;51.436;-2.742;2023-03-23T09:56:09;18.10;62.90
33863;DHT22;20158;51.436;-2.742;2023-03-23T09:58:46;18.20;62.90
33863;DHT22;20158;51.436;-2.742;2023-03-23T10:01:51;18.20;62.80
33863;DHT22;20158;51.436;-2.742;2023-03-23T10:07:08;18.20;62.50
33863;DHT22;20158;51.436;-2.742;2023-03-23T10:09:38;18.20;62.50
33863;DHT22;20158;51.436;-2.742;2023-03-23T10:15:35;18.30;62.20
33863;DHT22;20158;51.436;-2.742;2023-03-23T10:18:27;18.30;62.30
33863;DHT22;20158;51.436;-2.742;2023-03-23T10:21:00;18.30;62.50
33863;DHT22;20158;51.436;-2.742;2023-03-23T10:28:44;18.60;63.40
33863;DHT22;20158;51.436;-2.742;2023-03-23T10:31:13;18.70;62.90
33863;DHT22;20158;51.436;-2.742;2023-03-23T10:33:44;18.80;62.90
33863;DHT22;20158;51.436;-2.742;2023-03-23T10:36:21;18.80;62.70
33863;DHT22;20158;51.436;-2.742;2023-03-23T10:41:24;18.80;62.60
33863;DHT22;20158;51.436;-2.742;2023-03-23T10:43:53;18.90;62.60
33863;DHT22;20158;51.436;-2.742;2023-03-23T10:48:57;19.10;62.50
33863;DHT22;20158;51.436;-2.742;2023-03-23T10:51:31;19.20;62.50
33863;DHT22;20158;51.436;-2.742;2023-03-23T10:54:01;19.40;62.50
33863;DHT22;20158;51.436;-2.742;2023-03-23T10:56:40;19.50;62.30
33863;DHT22;20158;51.436;-2.742;2023-03-23T10:59:28;19.60;62.00
33863;DHT22;20158;51.436;-2.742;2023-03-23T11:02:00;19.70;61.70
33863;DHT22;20158;51.436;-2.742;2023-03-23T11:04:30;19.80;61.70
33863;DHT22;20158;51.436;-2.742;2023-03-23T11:07:01;19.80;61.70
33863;DHT22;20158;51.436;-2.742;2023-03-23T11:09:40;19.80;61.50
33863;DHT22;20158;51.436;-2.742;2023-03-23T11:12:18;19.80;61.50
33863;DHT22;20158;51.436;-2.742;2023-03-23T11:14:45;19.80;61.60
33863;DHT22;20158;51.436;-2.742;2023-03-23T11:17:40;19.90;61.60
33863;DHT22;20158;51.436;-2.742;2023-03-23T11:20:12;20.10;61.30
33863;DHT22;20158;51.436;-2.742;2023-03-23T11:22:38;20.20;61.30
33863;DHT22;20158;51.436;-2.742;2023-03-23T11:25:08;20.30;61.20
33863;DHT22;20158;51.436;-2.742;2023-03-23T11:27:38;20.40;61.10
33863;DHT22;20158;51.436;-2.742;2023-03-23T11:30:24;20.50;60.90
33863;DHT22;20158;51.436;-2.742;2023-03-23T11:32:51;20.70;60.70
33863;DHT22;20158;51.436;-2.742;2023-03-23T11:35:25;21.00;60.70
33863;DHT22;20158;51.436;-2.742;2023-03-23T11:37:54;21.10;60.30
33863;DHT22;20158;51.436;-2.742;2023-03-23T11:40:25;21.20;60.10
33863;DHT22;20158;51.436;-2.742;2023-03-23T11:43:01;21.30;59.90
33863;DHT22;20158;51.436;-2.742;2023-03-23T11:45:45;21.30;59.40
33863;DHT22;20158;51.436;-2.742;2023-03-23T11:51:39;21.20;59.10
33863;DHT22;20158;51.436;-2.742;2023-03-23T11:57:14;21.20;58.80
33863;DHT22;20158;51.436;-2.742;2023-03-23T11:59:42;21.20;58.90
33863;DHT22;20158;51.436;-2.742;2023-03-23T12:10:20;20.70;58.10
33863;DHT22;20158;51.436;-2.742;2023-03-23T12:12:53;20.60;58.00
33863;DHT22;20158;51.436;-2.742;2023-03-23T12:15:43;20.50;58.10
33863;DHT22;20158;51.436;-2.742;2023-03-23T12:18:40;20.40;57.80
33863;DHT22;20158;51.436;-2.742;2023-03-23T12:21:22;20.40;57.80
33863;DHT22;20158;51.436;-2.742;2023-03-23T12:26:33;20.70;58.10
33863;DHT22;20158;51.436;-2.742;2023-03-23T12:37:38;20.90;57.80
33863;DHT22;20158;51.436;-2.742;2023-03-23T12:40:23;21.00;57.60
33863;DHT22;20158;51.436;-2.742;2023-03-23T12:48:40;21.40;57.70
33863;DHT22;20158;51.436;-2.742;2023-03-23T13:02:04;21.60;57.10
33863;DHT22;20158;51.436;-2.742;2023-03-23T13:04:38;21.50;57.00
33863;DHT22;20158;51.436;-2.742;2023-03-23T13:07:09;21.40;57.10
33863;DHT22;20158;51.436;-2.742;2023-03-23T13:10:00;21.50;57.40
33863;DHT22;20158;51.436;-2.742;2023-03-23T13:12:31;21.50;57.10
33863;DHT22;20158;51.436;-2.742;2023-03-23T13:17:46;21.70;57.20
33863;DHT22;20158;51.436;-2.742;2023-03-23T13:23:22;21.80;56.70
33863;DHT22;20158;51.436;-2.742;2023-03-23T13:28:32;21.70;56.80
33863;DHT22;20158;51.436;-2.742;2023-03-23T13:31:12;21.70;56.80
33863;DHT22;20158;51.436;-2.742;2023-03-23T13:33:44;21.60;56.70
33863;DHT22;20158;51.436;-2.742;2023-03-23T13:36:13;21.60;57.40
33863;DHT22;20158;51.436;-2.742;2023-03-23T13:38:50;21.70;56.80
33863;DHT22;20158;51.436;-2.742;2023-03-23T13:41:18;21.70;56.60
33863;DHT22;20158;51.436;-2.742;2023-03-23T13:43:47;21.60;56.50
33863;DHT22;20158;51.436;-2.742;2023-03-23T13:48:50;21.50;56.20
33863;DHT22;20158;51.436;-2.742;2023-03-23T13:51:47;21.40;56.10
33863;DHT22;20158;51.436;-2.742;2023-03-23T13:54:39;21.20;55.90
33863;DHT22;20158;51.436;-2.742;2023-03-23T13:57:26;21.00;56.00
33863;DHT22;20158;51.436;-2.742;2023-03-23T13:59:58;20.90;56.30
33863;DHT22;20158;51.436;-2.742;2023-03-23T14:02:31;20.70;56.20
33863;DHT22;20158;51.436;-2.742;2023-03-23T14:10:33;20.40;56.60
33863;DHT22;20158;51.436;-2.742;2023-03-23T14:13:02;20.30;56.70
33863;DHT22;20158;51.436;-2.742;2023-03-23T14:15:40;20.20;56.90
33863;DHT22;20158;51.436;-2.742;2023-03-23T14:18:13;20.10;57.00
33863;DHT22;20158;51.436;-2.742;2023-03-23T14:20:39;19.90;57.00
33863;DHT22;20158;51.436;-2.742;2023-03-23T14:23:06;19.80;57.20
33863;DHT22;20158;51.436;-2.742;2023-03-23T14:25:32;19.70;57.30
33863;DHT22;20158;51.436;-2.742;2023-03-23T14:27:59;19.60;57.40
33863;DHT22;20158;51.436;-2.742;2023-03-23T14:30:27;19.50;57.40
33863;DHT22;20158;51.436;-2.742;2023-03-23T14:33:05;19.40;57.50
33863;DHT22;20158;51.436;-2.742;2023-03-23T14:35:37;19.20;57.40
33863;DHT22;20158;51.436;-2.742;2023-03-23T14:38:07;19.10;57.60
33863;DHT22;20158;51.436;-2.742;2023-03-23T14:40:38;19.00;57.80
33863;DHT22;20158;51.436;-2.742;2023-03-23T14:43:04;18.90;57.80
33863;DHT22;20158;51.436;-2.742;2023-03-23T14:45:32;18.80;57.80
33863;DHT22;20158;51.436;-2.742;2023-03-23T14:48:01;18.70;57.90
33863;DHT22;20158;51.436;-2.742;2023-03-23T14:50:49;18.60;58.00
33863;DHT22;20158;51.436;-2.742;2023-03-23T14:53:24;18.50;58.80
33863;DHT22;20158;51.436;-2.742;2023-03-23T14:55:53;18.40;58.30
33863;DHT22;20158;51.436;-2.742;2023-03-23T14:58:23;18.40;58.50
33863;DHT22;20158;51.436;-2.742;2023-03-23T15:01:10;18.40;58.70
33863;DHT22;20158;51.436;-2.742;2023-03-23T15:06:35;18.20;58.90
33863;DHT22;20158;51.436;-2.742;2023-03-23T15:09:11;18.10;58.80
33863;DHT22;20158;51.436;-2.742;2023-03-23T15:11:41;18.10;59.10
33863;DHT22;20158;51.436;-2.742;2023-03-23T15:14:21;18.00;59.20
33863;DHT22;20158;51.436;-2.742;2023-03-23T15:16:51;18.00;59.50
33863;DHT22;20158;51.436;-2.742;2023-03-23T15:19:21;17.80;59.30
33863;DHT22;20158;51.436;-2.742;2023-03-23T15:21:54;17.80;59.60
33863;DHT22;20158;51.436;-2.742;2023-03-23T15:24:36;17.70;60.10
33863;DHT22;20158;51.436;-2.742;2023-03-23T15:27:24;17.60;59.80
33863;DHT22;20158;51.436;-2.742;2023-03-23T15:29:53;17.50;60.10
33863;DHT22;20158;51.436;-2.742;2023-03-23T15:32:38;17.50;60.40
33863;DHT22;20158;51.436;-2.742;2023-03-23T15:35:13;17.50;61.00
33863;DHT22;20158;51.436;-2.742;2023-03-23T15:37:44;17.50;61.10
33863;DHT22;20158;51.436;-2.742;2023-03-23T15:40:18;17.50;61.30
33863;DHT22;20158;51.436;-2.742;2023-03-23T15:42:45;17.50;61.50
33863;DHT22;20158;51.436;-2.742;2023-03-23T15:47:49;17.60;61.70
33863;DHT22;20158;51.436;-2.742;2023-03-23T15:50:36;17.60;62.00
33863;DHT22;20158;51.436;-2.742;2023-03-23T15:55:48;17.60;62.10
33863;DHT22;20158;51.436;-2.742;2023-03-23T15:58:23;17.60;62.00
33863;DHT22;20158;51.436;-2.742;2023-03-23T16:00:50;17.50;62.00
33863;DHT22;20158;51.436;-2.742;2023-03-23T16:03:22;17.50;62.10
33863;DHT22;20158;51.436;-2.742;2023-03-23T16:05:50;17.50;62.30
33863;DHT22;20158;51.436;-2.742;2023-03-23T16:08:16;17.50;62.40
33863;DHT22;20158;51.436;-2.742;2023-03-23T16:10:42;17.50;62.50
33863;DHT22;20158;51.436;-2.742;2023-03-23T16:13:08;17.40;62.50
33863;DHT22;20158;51.436;-2.742;2023-03-23T16:15:34;17.40;62.70
33863;DHT22;20158;51.436;-2.742;2023-03-23T16:18:01;17.30;62.70
33863;DHT22;20158;51.436;-2.742;2023-03-23T16:20:28;17.30;62.80
33863;DHT22;20158;51.436;-2.742;2023-03-23T16:22:55;17.30;63.00
33863;DHT22;20158;51.436;-2.742;2023-03-23T16:25:22;17.30;63.10
33863;DHT22;20158;51.436;-2.742;2023-03-23T16:27:48;17.30;63.20
33863;DHT22;20158;51.436;-2.742;2023-03-23T16:30:17;17.30;63.30
33863;DHT22;20158;51.436;-2.742;2023-03-23T16:32:43;17.30;63.40
33863;DHT22;20158;51.436;-2.742;2023-03-23T16:35:12;17.30;63.60
33863;DHT22;20158;51.436;-2.742;2023-03-23T16:37:38;17.30;63.60
33863;DHT22;20158;51.436;-2.742;2023-03-23T16:40:11;17.30;63.60
33863;DHT22;20158;51.436;-2.742;2023-03-23T16:42:37;17.30;63.70
33863;DHT22;20158;51.436;-2.742;2023-03-23T16:45:04;17.30;63.70
33863;DHT22;20158;51.436;-2.742;2023-03-23T16:47:31;17.30;63.80
33863;DHT22;20158;51.436;-2.742;2023-03-23T16:49:57;17.30;63.80
33863;DHT22;20158;51.436;-2.742;2023-03-23T16:52:23;17.30;63.90
33863;DHT22;20158;51.436;-2.742;2023-03-23T16:54:49;17.30;63.90
33863;DHT22;20158;51.436;-2.742;2023-03-23T16:57:16;17.30;63.90
33863;DHT22;20158;51.436;-2.742;2023-03-23T16:59:43;17.30;64.00
33863;DHT22;20158;51.436;-2.742;2023-03-23T17:02:12;17.30;64.10
33863;DHT22;20158;51.436;-2.742;2023-03-23T17:04:42;17.30;64.10
33863;DHT22;20158;51.436;-2.742;2023-03-23T17:07:10;17.30;64.20
33863;DHT22;20158;51.436;-2.742;2023-03-23T17:09:37;17.30;64.30
33863;DHT22;20158;51.436;-2.742;2023-03-23T17:12:06;17.30;64.30
33863;DHT22;20158;51.436;-2.742;2023-03-23T17:14:32;17.30;64.40
33863;DHT22;20158;51.436;-2.742;2023-03-23T17:16:58;17.30;64.40
33863;DHT22;20158;51.436;-2.742;2023-03-23T17:19:25;17.30;64.40
33863;DHT22;20158;51.436;-2.742;2023-03-23T17:21:51;17.20;64.30
33863;DHT22;20158;51.436;-2.742;2023-03-23T17:24:17;17.20;64.30
33863;DHT22;20158;51.436;-2.742;2023-03-23T17:26:46;17.20;64.40
33863;DHT22;20158;51.436;-2.742;2023-03-23T17:29:13;17.20;64.40
33863;DHT22;20158;51.436;-2.742;2023-03-23T17:31:39;17.20;64.40
33863;DHT22;20158;51.436;-2.742;2023-03-23T17:34:06;17.20;64.30
33863;DHT22;20158;51.436;-2.742;2023-03-23T17:36:32;17.00;64.00
33863;DHT22;20158;51.436;-2.742;2023-03-23T17:38:59;17.00;64.20
33863;DHT22;20158;51.436;-2.742;2023-03-23T17:41:25;16.90;64.30
33863;DHT22;20158;51.436;-2.742;2023-03-23T17:43:51;16.90;64.60
33863;DHT22;20158;51.436;-2.742;2023-03-23T17:46:17;16.90;64.80